createdAt,value
2022-09-07T00:00:59.475Z,55.89
2022-09-07T00:01:59.427Z,55.79
2022-09-07T00:02:59.457Z,55.87
2022-09-07T00:03:59.456Z,55.79
2022-09-07T00:04:59.401Z,55.89
2022-09-07T00:05:59.399Z,55.89
2022-09-07T00:06:59.377Z,55.69
2022-09-07T00:07:59.362Z,56.40
2022-09-07T00:08:59.355Z,55.69
2022-09-07T00:09:59.340Z,56.09
2022-09-07T00:10:59.346Z,56.40
2022-09-07T00:11:59.328Z,55.99
2022-09-07T00:12:59.310Z,55.99
2022-09-07T00:13:59.296Z,55.79
2022-09-07T00:14:59.297Z,56.20
2022-09-07T00:15:59.378Z,55.49
2022-09-07T00:16:59.268Z,56.09
2022-09-07T00:17:59.256Z,55.69
2022-09-07T00:18:59.271Z,55.79
2022-09-07T00:19:59.230Z,55.91
2022-09-07T00:20:59.236Z,55.79
2022-09-07T00:21:59.210Z,56.12
2022-09-07T00:22:59.200Z,55.82
2022-09-07T00:23:59.187Z,55.41
2022-09-07T00:24:59.179Z,55.71
2022-09-07T00:25:59.178Z,55.51
2022-09-07T00:26:59.158Z,55.62
2022-09-07T00:27:59.143Z,56.12
2022-09-07T00:28:59.137Z,55.71
2022-09-07T00:29:59.123Z,56.12
2022-09-07T00:30:59.155Z,55.51
2022-09-07T00:31:59.099Z,56.12
2022-09-07T00:32:59.090Z,55.91
2022-09-07T00:33:59.087Z,56.32
2022-09-07T00:34:59.069Z,56.12
2022-09-07T00:35:59.064Z,56.12
2022-09-07T00:36:59.045Z,55.64
2022-09-07T00:37:59.034Z,56.02
2022-09-07T00:38:59.022Z,55.84
2022-09-07T00:39:59.072Z,55.94
2022-09-07T00:40:59.013Z,55.71
2022-09-07T00:41:58.992Z,56.15
2022-09-07T00:42:58.981Z,56.45
2022-09-07T00:43:58.967Z,56.65
2022-09-07T00:44:58.958Z,56.15
2022-09-07T00:45:58.958Z,56.55
2022-09-07T00:46:58.964Z,56.37
2022-09-07T00:47:58.928Z,56.77
2022-09-07T00:48:58.911Z,56.37
2022-09-07T00:49:58.902Z,56.48
2022-09-07T00:50:58.908Z,56.57
2022-09-07T00:51:58.888Z,56.68
2022-09-07T00:52:58.870Z,56.27
2022-09-07T00:53:58.855Z,56.57
2022-09-07T00:54:58.848Z,56.07
2022-09-07T00:55:58.926Z,56.40
2022-09-07T00:56:58.827Z,56.27
2022-09-07T00:57:58.812Z,56.68
2022-09-07T00:58:58.803Z,56.70
2022-09-07T00:59:58.788Z,56.88
2022-09-07T01:00:58.794Z,56.48
2022-09-07T01:01:58.887Z,56.77
2022-09-07T01:02:58.977Z,57.41
2022-09-07T01:03:58.744Z,57.01
2022-09-07T01:04:58.745Z,57.41
2022-09-07T01:05:58.724Z,57.10
2022-09-07T01:06:58.717Z,57.51
2022-09-07T01:07:58.701Z,57.31
2022-09-07T01:08:58.692Z,57.61
2022-09-07T01:09:58.688Z,57.64
2022-09-07T01:10:58.669Z,57.41
2022-09-07T01:11:58.657Z,57.31
2022-09-07T01:12:58.652Z,57.21
2022-09-07T01:13:58.634Z,56.83
2022-09-07T01:14:58.635Z,57.43
2022-09-07T01:15:58.632Z,57.64
2022-09-07T01:16:58.613Z,57.23
2022-09-07T01:17:58.592Z,57.74
2022-09-07T01:18:58.584Z,57.54
2022-09-07T01:19:58.581Z,57.43
2022-09-07T01:20:58.566Z,57.84
2022-09-07T01:21:58.546Z,58.04
2022-09-07T01:22:58.537Z,57.94
2022-09-07T01:23:58.526Z,57.64
2022-09-07T01:24:58.527Z,58.14
2022-09-07T01:25:58.503Z,57.74
2022-09-07T01:26:58.493Z,58.14
2022-09-07T01:27:58.486Z,57.94
2022-09-07T01:28:58.470Z,57.84
2022-09-07T01:29:58.473Z,58.14
2022-09-07T01:30:58.503Z,58.14
2022-09-07T01:31:58.439Z,57.94
2022-09-07T01:32:58.428Z,58.14
2022-09-07T01:33:58.413Z,58.07
2022-09-07T01:34:58.422Z,58.25
2022-09-07T01:35:58.393Z,58.34
2022-09-07T01:36:58.384Z,58.87
2022-09-07T01:37:58.379Z,58.27
2022-09-07T01:38:58.364Z,58.27
2022-09-07T01:39:58.429Z,58.27
2022-09-07T01:40:58.341Z,58.17
2022-09-07T01:41:58.330Z,58.37
2022-09-07T01:42:58.317Z,58.27
2022-09-07T01:43:58.304Z,58.67
2022-09-07T01:44:58.407Z,58.58
2022-09-07T01:45:58.300Z,58.47
2022-09-07T01:46:58.276Z,58.78
2022-09-07T01:47:58.297Z,58.98
2022-09-07T01:48:58.259Z,59.21
2022-09-07T01:49:58.255Z,58.78
2022-09-07T01:50:58.230Z,58.67
2022-09-07T01:51:58.252Z,58.67
2022-09-07T01:52:58.225Z,58.67
2022-09-07T01:53:58.200Z,58.91
2022-09-07T01:54:58.249Z,59.21
2022-09-07T01:55:58.174Z,59.48
2022-09-07T01:56:58.178Z,58.91
2022-09-07T01:57:58.155Z,59.31
2022-09-07T01:58:58.142Z,59.28
2022-09-07T01:59:58.139Z,59.51
2022-09-07T02:00:58.130Z,59.11
2022-09-07T02:01:58.170Z,59.61
2022-09-07T02:02:58.209Z,59.11
2022-09-07T02:03:58.084Z,59.61
2022-09-07T02:04:58.090Z,59.71
2022-09-07T02:05:58.063Z,59.71
2022-09-07T02:06:58.054Z,59.61
2022-09-07T02:07:58.044Z,60.02
2022-09-07T02:08:58.033Z,59.71
2022-09-07T02:09:58.031Z,59.81
2022-09-07T02:10:58.019Z,59.11
2022-09-07T02:11:58.001Z,59.61
2022-09-07T02:12:57.984Z,59.51
2022-09-07T02:13:57.978Z,59.71
2022-09-07T02:14:57.985Z,59.71
2022-09-07T02:15:58.065Z,59.91
2022-09-07T02:16:57.948Z,59.81
2022-09-07T02:17:57.932Z,59.71
2022-09-07T02:18:57.920Z,59.81
2022-09-07T02:19:57.921Z,59.81
2022-09-07T02:20:57.899Z,59.91
2022-09-07T02:21:57.892Z,60.32
2022-09-07T02:22:57.879Z,60.12
2022-09-07T02:23:57.866Z,60.22
2022-09-07T02:24:57.864Z,60.42
2022-09-07T02:25:57.845Z,60.35
2022-09-07T02:26:57.832Z,60.52
2022-09-07T02:27:57.821Z,60.32
2022-09-07T02:28:57.810Z,60.42
2022-09-07T02:29:57.810Z,59.91
2022-09-07T02:30:57.829Z,60.32
2022-09-07T02:31:57.779Z,60.42
2022-09-07T02:32:57.765Z,60.12
2022-09-07T02:33:57.760Z,60.25
2022-09-07T02:34:57.758Z,60.25
2022-09-07T02:35:57.732Z,60.45
2022-09-07T02:36:57.725Z,60.35
2022-09-07T02:37:57.717Z,60.14
2022-09-07T02:38:57.704Z,60.35
2022-09-07T02:39:57.766Z,60.85
2022-09-07T02:40:57.682Z,60.35
2022-09-07T02:41:57.670Z,60.14
2022-09-07T02:42:57.657Z,60.25
2022-09-07T02:43:57.647Z,60.14
2022-09-07T02:44:57.654Z,60.85
2022-09-07T02:45:57.703Z,61.05
2022-09-07T02:46:57.618Z,60.85
2022-09-07T02:47:57.603Z,61.16
2022-09-07T02:48:57.605Z,61.25
2022-09-07T02:49:57.592Z,60.96
2022-09-07T02:50:57.576Z,60.68
2022-09-07T02:51:57.565Z,61.25
2022-09-07T02:52:57.548Z,61.49
2022-09-07T02:53:57.537Z,61.19
2022-09-07T02:54:57.539Z,61.39
2022-09-07T02:55:57.519Z,61.59
2022-09-07T02:56:57.509Z,61.59
2022-09-07T02:57:57.492Z,61.49
2022-09-07T02:58:57.483Z,62.30
2022-09-07T02:59:57.484Z,61.79
2022-09-07T03:00:57.464Z,61.59
2022-09-07T03:01:57.451Z,62.30
2022-09-07T03:02:57.529Z,62.30
2022-09-07T03:03:57.429Z,62.23
2022-09-07T03:04:57.429Z,62.30
2022-09-07T03:05:57.407Z,62.10
2022-09-07T03:06:57.403Z,61.99
2022-09-07T03:07:57.387Z,62.33
2022-09-07T03:08:57.375Z,62.19
2022-09-07T03:09:57.370Z,62.12
2022-09-07T03:10:57.352Z,62.33
2022-09-07T03:11:57.342Z,62.33
2022-09-07T03:12:57.332Z,62.02
2022-09-07T03:13:57.320Z,62.33
2022-09-07T03:14:57.323Z,62.93
2022-09-07T03:15:57.363Z,63.13
2022-09-07T03:16:57.289Z,63.04
2022-09-07T03:17:57.276Z,62.84
2022-09-07T03:18:57.265Z,63.13
2022-09-07T03:19:57.267Z,62.93
2022-09-07T03:20:57.243Z,62.63
2022-09-07T03:21:57.230Z,62.43
2022-09-07T03:22:57.222Z,62.53
2022-09-07T03:23:57.211Z,62.63
2022-09-07T03:24:57.208Z,62.23
2022-09-07T03:25:57.190Z,62.33
2022-09-07T03:26:57.183Z,62.35
2022-09-07T03:27:57.167Z,62.73
2022-09-07T03:28:57.155Z,62.33
2022-09-07T03:29:57.158Z,62.93
2022-09-07T03:30:57.259Z,62.84
2022-09-07T03:31:57.124Z,62.56
2022-09-07T03:32:57.114Z,62.46
2022-09-07T03:33:57.104Z,63.07
2022-09-07T03:34:57.100Z,63.07
2022-09-07T03:35:57.077Z,63.47
2022-09-07T03:36:57.070Z,63.87
2022-09-07T03:37:57.066Z,63.47
2022-09-07T03:38:57.058Z,63.87
2022-09-07T03:39:57.192Z,63.78
2022-09-07T03:40:57.029Z,63.67
2022-09-07T03:41:57.014Z,63.47
2022-09-07T03:42:57.003Z,63.57
2022-09-07T03:43:56.990Z,63.57
2022-09-07T03:44:56.992Z,63.47
2022-09-07T03:45:57.009Z,63.67
2022-09-07T03:46:56.962Z,63.67
2022-09-07T03:47:56.946Z,63.78
2022-09-07T03:48:56.935Z,63.67
2022-09-07T03:49:56.936Z,63.57
2022-09-07T03:50:56.915Z,63.57
2022-09-07T03:51:56.924Z,63.67
2022-09-07T03:52:56.893Z,63.57
2022-09-07T03:53:56.885Z,63.67
2022-09-07T03:54:56.881Z,63.57
2022-09-07T03:55:56.858Z,63.27
2022-09-07T03:56:56.850Z,63.47
2022-09-07T03:57:56.838Z,63.27
2022-09-07T03:58:56.833Z,63.47
2022-09-07T03:59:56.832Z,63.78
2022-09-07T04:00:56.908Z,63.98
2022-09-07T04:01:56.797Z,64.18
2022-09-07T04:02:56.846Z,64.38
2022-09-07T04:04:01.319Z,64.21
2022-09-07T04:04:57.770Z,64.18
2022-09-07T04:05:56.750Z,64.31
2022-09-07T04:06:56.741Z,64.41
2022-09-07T04:07:56.729Z,64.41
2022-09-07T04:08:56.718Z,64.31
2022-09-07T04:09:56.717Z,64.41
2022-09-07T04:10:56.697Z,64.38
2022-09-07T04:11:56.686Z,64.28
2022-09-07T04:12:56.676Z,64.28
2022-09-07T04:13:56.666Z,64.21
2022-09-07T04:14:56.664Z,64.21
2022-09-07T04:15:56.647Z,64.28
2022-09-07T04:16:56.721Z,64.31
2022-09-07T04:17:56.620Z,64.38
2022-09-07T04:18:56.609Z,64.38
2022-09-07T04:19:56.604Z,64.41
2022-09-07T04:20:56.587Z,64.48
2022-09-07T04:21:56.576Z,64.28
2022-09-07T04:22:56.564Z,64.31
2022-09-07T04:23:56.552Z,64.48
2022-09-07T04:24:56.556Z,64.28
2022-09-07T04:25:56.532Z,64.48
2022-09-07T04:26:56.522Z,64.48
2022-09-07T04:27:56.511Z,64.58
2022-09-07T04:28:56.499Z,64.28
2022-09-07T04:29:56.501Z,64.38
2022-09-07T04:30:56.515Z,64.72
2022-09-07T04:31:56.466Z,64.58
2022-09-07T04:32:56.459Z,64.41
2022-09-07T04:33:56.442Z,64.92
2022-09-07T04:34:56.448Z,64.82
2022-09-07T04:35:56.421Z,64.72
2022-09-07T04:36:56.412Z,64.72
2022-09-07T04:37:56.401Z,65.15
2022-09-07T04:38:56.407Z,64.85
2022-09-07T04:39:56.425Z,65.15
2022-09-07T04:40:56.367Z,65.86
2022-09-07T04:41:56.388Z,65.66
2022-09-07T04:42:56.345Z,65.25
2022-09-07T04:43:56.347Z,65.73
2022-09-07T04:44:56.328Z,65.66
2022-09-07T04:45:56.374Z,65.56
2022-09-07T04:46:56.306Z,65.66
2022-09-07T04:47:56.289Z,65.53
2022-09-07T04:48:56.288Z,65.42
2022-09-07T04:49:56.268Z,65.62
2022-09-07T04:50:56.260Z,65.12
2022-09-07T04:51:56.245Z,64.82
2022-09-07T04:52:56.236Z,64.82
2022-09-07T04:53:56.236Z,65.02
2022-09-07T04:54:56.221Z,65.22
2022-09-07T04:55:56.202Z,65.53
2022-09-07T04:56:56.191Z,65.42
2022-09-07T04:57:56.192Z,65.12
2022-09-07T04:58:56.187Z,65.22
2022-09-07T04:59:56.215Z,65.53
2022-09-07T05:00:56.185Z,65.53
2022-09-07T05:01:56.154Z,65.62
2022-09-07T05:02:56.129Z,65.32
2022-09-07T05:03:56.125Z,65.73
2022-09-07T05:04:59.467Z,65.73
2022-09-07T05:05:57.091Z,65.32
2022-09-07T05:06:56.082Z,65.42
2022-09-07T05:07:56.071Z,65.93
2022-09-07T05:08:56.077Z,65.32
2022-09-07T05:09:56.049Z,66.03
2022-09-07T05:10:56.045Z,65.62
2022-09-07T05:11:56.026Z,65.83
2022-09-07T05:12:56.019Z,65.93
2022-09-07T05:13:56.020Z,65.83
2022-09-07T05:14:56.003Z,65.93
2022-09-07T05:15:55.983Z,65.90
2022-09-07T05:16:56.014Z,65.42
2022-09-07T05:17:55.961Z,65.53
2022-09-07T05:18:55.964Z,65.62
2022-09-07T05:19:55.941Z,65.83
2022-09-07T05:20:55.951Z,65.39
2022-09-07T05:21:55.925Z,65.29
2022-09-07T05:22:55.918Z,65.39
2022-09-07T05:23:55.908Z,65.90
2022-09-07T05:24:55.889Z,65.29
2022-09-07T05:25:55.873Z,65.50
2022-09-07T05:26:55.862Z,65.80
2022-09-07T05:27:55.851Z,65.70
2022-09-07T05:31:56.805Z,65.90
2022-09-07T05:32:55.798Z,65.39
2022-09-07T05:34:56.776Z,65.47
2022-09-07T05:35:55.764Z,65.56
2022-09-07T05:36:55.754Z,65.39
2022-09-07T05:37:55.752Z,65.47
2022-09-07T05:38:55.734Z,65.56
2022-09-07T05:39:55.782Z,65.50
2022-09-07T05:40:55.712Z,65.67
2022-09-07T05:41:55.697Z,65.67
2022-09-07T05:42:55.697Z,64.86
2022-09-07T05:44:56.666Z,64.83
2022-09-07T05:45:55.725Z,64.86
2022-09-07T05:46:55.705Z,64.83
2022-09-07T05:47:55.647Z,64.83
2022-09-07T05:48:55.624Z,64.62
2022-09-07T05:49:57.296Z,64.83
2022-09-07T05:50:55.608Z,64.32
2022-09-07T05:51:55.590Z,64.42
2022-09-07T05:52:55.593Z,64.59
2022-09-07T05:53:55.567Z,64.49
2022-09-07T05:55:03.200Z,64.49
2022-09-07T05:55:56.544Z,64.39
2022-09-07T05:56:55.536Z,64.70
2022-09-07T05:57:55.530Z,64.79
2022-09-07T05:58:55.512Z,64.39
2022-09-07T05:59:55.500Z,64.36
2022-09-07T06:00:55.494Z,64.29
2022-09-07T06:01:55.616Z,64.26
2022-09-07T06:02:55.574Z,64.26
2022-09-07T06:03:55.488Z,63.96
2022-09-07T06:04:55.449Z,63.55
2022-09-07T06:05:55.437Z,63.73
2022-09-07T06:07:56.425Z,63.82
2022-09-07T06:08:55.437Z,62.99
2022-09-07T06:10:56.409Z,62.73
2022-09-07T06:11:55.404Z,62.63
2022-09-07T06:12:55.413Z,61.29
2022-09-07T06:13:55.350Z,60.88
2022-09-07T06:14:55.337Z,61.05
2022-09-07T06:15:55.327Z,60.45
2022-09-07T06:16:55.353Z,60.05
2022-09-07T06:17:55.319Z,60.25
2022-09-07T06:18:55.293Z,60.17
2022-09-07T06:19:55.281Z,60.38
2022-09-07T06:20:55.271Z,61.25
2022-09-07T06:21:55.258Z,61.76
2022-09-07T06:22:55.279Z,60.96
2022-09-07T06:23:55.237Z,60.65
2022-09-07T06:24:55.248Z,60.12
2022-09-07T06:25:55.215Z,59.52
2022-09-07T06:26:55.203Z,59.42
2022-09-07T06:27:55.237Z,59.72
2022-09-07T06:28:57.931Z,59.19
2022-09-07T06:29:55.199Z,59.48
2022-09-07T06:30:55.163Z,59.39
2022-09-07T06:32:56.153Z,59.39
2022-09-07T06:33:55.172Z,59.46
2022-09-07T06:34:55.127Z,58.55
2022-09-07T06:35:55.107Z,58.95
2022-09-07T06:36:55.098Z,58.42
2022-09-07T06:37:55.099Z,58.33
2022-09-07T06:38:55.073Z,57.90
2022-09-07T06:39:55.143Z,58.70
2022-09-07T06:42:55.042Z,57.87
2022-09-07T06:43:55.018Z,58.07
2022-09-07T06:44:55.011Z,57.24
2022-09-07T06:45:55.397Z,56.96
2022-09-07T06:47:55.986Z,57.17
2022-09-07T06:48:54.963Z,58.20
2022-09-07T06:49:54.954Z,58.29
2022-09-07T06:50:54.944Z,58.29
2022-09-07T06:51:54.934Z,58.53
2022-09-07T06:55:54.888Z,58.29
2022-09-07T06:56:54.881Z,58.09
2022-09-07T06:57:54.880Z,58.07
2022-09-07T06:58:54.863Z,57.74
2022-09-07T06:59:54.847Z,57.54
2022-09-07T07:00:54.876Z,58.04
2022-09-07T07:01:54.826Z,57.84
2022-09-07T07:02:54.891Z,57.14
2022-09-07T07:03:54.808Z,57.54
2022-09-07T07:04:54.789Z,57.34
2022-09-07T07:05:54.790Z,57.94
2022-09-07T07:06:54.768Z,57.97
2022-09-07T07:07:54.771Z,58.44
2022-09-07T07:08:54.746Z,57.94
2022-09-07T07:09:54.737Z,58.34
2022-09-07T07:10:54.722Z,57.41
2022-09-07T07:11:54.712Z,57.21
2022-09-07T07:12:54.716Z,57.51
2022-09-07T07:13:54.691Z,57.11
2022-09-07T07:14:54.682Z,57.21
2022-09-07T07:15:54.734Z,57.39
2022-09-07T07:16:54.660Z,57.18
2022-09-07T07:17:59.089Z,57.18
2022-09-07T07:18:55.632Z,56.15
2022-09-07T07:19:54.682Z,56.28
2022-09-07T07:20:54.616Z,55.55
2022-09-07T07:22:55.592Z,55.80
2022-09-07T07:23:54.586Z,53.87
2022-09-07T07:24:54.574Z,53.85
2022-09-07T07:25:54.568Z,53.44
2022-09-07T07:26:54.572Z,53.72
2022-09-07T07:27:54.884Z,53.19
2022-09-07T07:29:54.526Z,52.55
2022-09-07T07:30:54.508Z,51.12
2022-09-07T07:31:54.514Z,51.42
2022-09-07T07:32:54.542Z,50.79
2022-09-07T07:33:54.591Z,51.15
2022-09-07T07:34:54.472Z,49.93
2022-09-07T07:35:54.452Z,50.00
2022-09-07T07:36:54.449Z,48.98
2022-09-07T07:41:57.572Z,47.37
2022-09-07T07:42:54.376Z,48.76
2022-09-07T07:43:54.367Z,48.50
2022-09-07T07:45:55.351Z,48.61
2022-09-07T07:46:54.400Z,49.30
2022-09-07T07:47:54.361Z,49.23
2022-09-07T07:48:54.396Z,49.55
2022-09-07T07:50:30.790Z,49.95
2022-09-07T07:50:55.290Z,50.85
2022-09-07T07:53:55.569Z,52.22
2022-09-07T07:54:54.251Z,51.52
2022-09-07T07:55:54.240Z,52.25
2022-09-07T07:56:54.247Z,52.34
2022-09-07T07:57:54.219Z,52.74
2022-09-07T07:58:54.210Z,51.82
2022-09-07T07:59:54.196Z,51.50
2022-09-07T08:00:55.897Z,51.17
2022-09-07T08:01:54.353Z,51.54
2022-09-07T08:02:54.232Z,50.43
2022-09-07T08:03:54.157Z,49.80
2022-09-07T08:04:54.146Z,49.70
2022-09-07T08:05:54.147Z,48.66
2022-09-07T08:06:54.144Z,49.33
2022-09-07T08:07:54.117Z,48.71
2022-09-07T08:08:54.143Z,48.81
2022-09-07T08:09:54.091Z,48.71
2022-09-07T08:10:54.081Z,48.52
2022-09-07T08:11:54.100Z,47.52
2022-09-07T08:12:54.058Z,47.50
2022-09-07T08:13:54.105Z,47.50
2022-09-07T08:14:54.037Z,47.67
2022-09-07T08:15:54.119Z,46.95
2022-09-07T08:16:54.023Z,45.42
2022-09-07T08:17:54.011Z,46.81
2022-09-07T08:18:53.999Z,46.81
2022-09-07T08:19:53.985Z,46.71
2022-09-07T08:20:53.975Z,46.59
2022-09-07T08:21:53.998Z,45.28
2022-09-07T08:22:53.955Z,45.08
2022-09-07T08:23:53.942Z,46.57
2022-09-07T08:24:53.937Z,46.67
2022-09-07T08:25:53.924Z,45.75
2022-09-07T08:26:53.925Z,44.74
2022-09-07T08:27:53.911Z,44.05
2022-09-07T08:28:53.905Z,44.45
2022-09-07T08:29:53.880Z,45.34
2022-09-07T08:30:53.874Z,45.04
2022-09-07T08:31:53.962Z,45.16
2022-09-07T08:32:53.848Z,45.26
2022-09-07T08:33:53.845Z,45.45
2022-09-07T08:34:53.827Z,44.64
2022-09-07T08:35:53.821Z,44.50
2022-09-07T08:36:53.814Z,44.70
2022-09-07T08:37:53.914Z,44.40
2022-09-07T08:38:53.791Z,44.40
2022-09-07T08:39:53.872Z,44.31
2022-09-07T08:40:53.761Z,45.12
2022-09-07T08:41:53.765Z,45.04
2022-09-07T08:42:53.771Z,45.16
2022-09-07T08:43:53.735Z,45.68
2022-09-07T08:44:53.726Z,45.65
2022-09-07T08:45:53.713Z,46.42
2022-09-07T08:46:53.737Z,45.93
2022-09-07T08:47:53.703Z,45.12
2022-09-07T08:48:53.681Z,45.23
2022-09-07T08:49:53.674Z,46.15
2022-09-07T08:50:53.690Z,47.06
2022-09-07T08:51:53.652Z,47.19
2022-09-07T08:52:53.646Z,46.98
2022-09-07T08:53:53.646Z,46.79
2022-09-07T08:54:53.623Z,46.79
2022-09-07T08:55:53.612Z,47.09
2022-09-07T08:57:54.602Z,47.36
2022-09-07T08:58:53.594Z,47.06
2022-09-07T08:59:53.568Z,46.84
2022-09-07T09:01:30.793Z,46.67
2022-09-07T09:05:54.738Z,46.64
2022-09-07T09:06:53.732Z,46.03
2022-09-07T09:07:53.505Z,46.52
2022-09-07T09:08:53.478Z,46.74
2022-09-07T09:09:53.489Z,46.52
2022-09-07T09:10:53.464Z,46.82
2022-09-07T09:11:53.462Z,47.34
2022-09-07T09:12:53.437Z,46.74
2022-09-07T09:13:53.428Z,46.92
2022-09-07T09:14:53.416Z,46.74
2022-09-07T09:15:53.494Z,46.64
2022-09-07T09:16:53.410Z,46.64
2022-09-07T09:17:53.387Z,46.84
2022-09-07T09:18:53.374Z,47.24
2022-09-07T09:19:53.368Z,47.12
2022-09-07T09:20:53.354Z,46.11
2022-09-07T09:21:53.385Z,46.38
2022-09-07T09:22:53.333Z,46.18
2022-09-07T09:23:53.324Z,46.38
2022-09-07T09:24:53.319Z,46.20
2022-09-07T09:25:53.331Z,46.20
2022-09-07T09:26:53.309Z,46.33
2022-09-07T09:27:53.284Z,46.74
2022-09-07T09:28:53.278Z,47.14
2022-09-07T09:29:53.264Z,47.34
2022-09-07T09:30:53.326Z,46.82
2022-09-07T09:31:53.265Z,46.30
2022-09-07T09:32:53.270Z,46.89
2022-09-07T09:33:53.223Z,46.50
2022-09-07T09:34:53.213Z,45.27
2022-09-07T09:35:53.203Z,46.66
2022-09-07T09:36:53.203Z,46.23
2022-09-07T09:37:53.186Z,46.53
2022-09-07T09:38:53.171Z,44.43
2022-09-07T09:39:55.472Z,44.91
2022-09-07T09:40:53.151Z,45.13
2022-09-07T09:41:53.168Z,44.64
2022-09-07T09:42:53.129Z,45.84
2022-09-07T09:43:53.121Z,46.44
2022-09-07T09:44:53.109Z,45.82
2022-09-07T09:47:54.552Z,45.10
2022-09-07T09:48:53.067Z,44.76
2022-09-07T09:49:53.059Z,44.45
2022-09-07T09:52:54.033Z,44.27
2022-09-07T09:53:53.019Z,44.94
2022-09-07T09:54:53.005Z,43.74
2022-09-07T09:55:52.998Z,43.03
2022-09-07T09:56:52.994Z,43.93
2022-09-07T10:00:00.336Z,45.03
2022-09-07T10:04:52.941Z,46.51
2022-09-07T10:05:52.895Z,46.53
2022-09-07T10:06:52.890Z,46.63
2022-09-07T10:07:52.874Z,47.03
2022-09-07T10:08:52.865Z,48.03
2022-09-07T10:09:52.855Z,46.73
2022-09-07T10:10:52.848Z,46.91
2022-09-07T10:12:08.742Z,46.51
2022-09-07T10:12:53.820Z,46.19
2022-09-07T10:13:52.841Z,46.33
2022-09-07T10:14:52.803Z,46.97
2022-09-07T10:15:52.861Z,48.18
2022-09-07T10:16:52.789Z,48.80
2022-09-07T10:17:52.771Z,48.28
2022-09-07T10:18:52.759Z,49.49
2022-09-07T10:19:52.819Z,50.41
2022-09-07T10:20:52.742Z,51.23
2022-09-07T10:21:52.741Z,50.83
2022-09-07T10:22:52.721Z,50.93
2022-09-07T10:23:52.709Z,51.23
2022-09-07T10:24:52.699Z,50.71
2022-09-07T10:25:52.687Z,50.60
2022-09-07T10:26:52.685Z,50.73
2022-09-07T10:27:52.666Z,51.65
2022-09-07T10:29:08.411Z,52.26
2022-09-07T10:29:53.662Z,52.59
2022-09-07T10:30:52.687Z,53.01
2022-09-07T10:31:52.745Z,53.21
2022-09-07T10:32:52.650Z,52.94
2022-09-07T10:34:53.593Z,55.15
2022-09-07T10:35:52.614Z,55.38
2022-09-07T10:36:52.578Z,55.27
2022-09-07T10:37:52.563Z,55.27
2022-09-07T10:38:52.552Z,55.18
2022-09-07T10:39:55.815Z,55.27
2022-09-07T10:40:53.555Z,55.38
2022-09-07T10:41:52.529Z,56.30
2022-09-07T10:43:53.496Z,56.49
2022-09-07T10:44:52.489Z,56.89
2022-09-07T10:45:52.529Z,56.49
2022-09-07T10:46:59.661Z,56.49
2022-09-07T10:47:53.450Z,56.20
2022-09-07T10:48:52.443Z,56.79
2022-09-07T10:50:53.421Z,57.09
2022-09-07T10:51:52.425Z,56.00
2022-09-07T10:52:52.408Z,56.67
2022-09-07T10:54:53.376Z,56.77
2022-09-07T10:55:52.364Z,56.67
2022-09-07T10:56:52.364Z,56.49
2022-09-07T10:57:52.354Z,56.57
2022-09-07T10:59:07.663Z,56.57
2022-09-07T11:00:09.510Z,56.57
2022-09-07T11:00:53.309Z,57.09
2022-09-07T11:01:52.409Z,56.96
2022-09-07T11:03:53.338Z,57.39
2022-09-07T11:04:52.266Z,57.29
2022-09-07T11:05:52.252Z,57.59
2022-09-07T11:06:52.258Z,57.69
2022-09-07T11:07:52.232Z,57.49
2022-09-07T11:09:53.208Z,57.82
2022-09-07T11:10:52.203Z,57.49
2022-09-07T11:12:07.640Z,57.49
2022-09-07T11:12:53.194Z,57.89
2022-09-07T11:14:12.170Z,58.18
2022-09-07T11:14:53.151Z,58.18
2022-09-07T11:15:52.240Z,57.79
2022-09-07T11:16:52.461Z,57.79
2022-09-07T11:17:53.189Z,57.99
2022-09-07T11:18:52.270Z,57.99
2022-09-07T11:19:52.095Z,58.09
2022-09-07T11:20:52.088Z,57.59
2022-09-07T11:21:59.277Z,57.17
2022-09-07T11:22:53.065Z,57.17
2022-09-07T11:23:52.051Z,57.06
2022-09-07T11:25:53.028Z,57.46
2022-09-07T11:26:52.034Z,57.76
2022-09-07T11:27:52.006Z,56.54
2022-09-07T11:29:52.982Z,56.12
2022-09-07T11:30:53.783Z,56.12
2022-09-07T11:31:51.973Z,57.01
2022-09-07T11:32:51.955Z,56.81
2022-09-07T11:34:52.940Z,56.12
2022-09-07T11:35:51.917Z,57.01
2022-09-07T11:36:51.923Z,57.04
2022-09-07T11:37:51.897Z,57.53
2022-09-07T11:38:51.886Z,57.93
2022-09-07T11:39:51.895Z,57.73
2022-09-07T11:40:51.863Z,57.81
2022-09-07T11:41:51.863Z,57.81
2022-09-07T11:42:51.842Z,57.60
2022-09-07T11:43:51.879Z,57.81
2022-09-07T11:44:55.660Z,56.71
2022-09-07T11:45:52.847Z,56.71
2022-09-07T11:46:51.807Z,57.43
2022-09-07T11:47:51.788Z,57.41
2022-09-07T11:48:51.778Z,57.11
2022-09-07T11:49:54.151Z,57.11
2022-09-07T11:50:52.752Z,58.00
2022-09-07T11:51:54.774Z,58.03
2022-09-07T11:52:54.764Z,58.13
2022-09-07T11:53:51.719Z,58.03
2022-09-07T11:54:51.796Z,58.23
2022-09-07T11:55:51.695Z,57.43
2022-09-07T11:56:51.701Z,57.21
2022-09-07T11:57:55.484Z,57.31
2022-09-07T11:58:51.668Z,57.51
2022-09-07T11:59:51.652Z,57.31
2022-09-07T12:00:51.643Z,57.21
2022-09-07T12:01:51.640Z,57.41
2022-09-07T12:03:00.496Z,57.53
2022-09-07T12:03:52.756Z,57.73
2022-09-07T12:04:56.019Z,58.00
2022-09-07T12:05:51.600Z,57.90
2022-09-07T12:06:51.584Z,57.60
2022-09-07T12:07:51.564Z,58.50
2022-09-07T12:08:51.551Z,58.50
2022-09-07T12:09:51.539Z,57.41
2022-09-07T12:10:51.533Z,57.21
2022-09-07T12:11:51.529Z,57.98
2022-09-07T12:12:51.513Z,57.28
2022-09-07T12:13:51.495Z,57.08
2022-09-07T12:14:51.486Z,56.49
2022-09-07T12:15:51.558Z,56.76
2022-09-07T12:16:51.477Z,56.26
2022-09-07T12:17:51.455Z,56.46
2022-09-07T12:18:51.447Z,56.34
2022-09-07T12:19:51.434Z,56.53
2022-09-07T12:20:51.424Z,56.73
2022-09-07T12:21:51.480Z,55.34
2022-09-07T12:22:51.404Z,55.54
2022-09-07T12:23:51.388Z,55.44
2022-09-07T12:24:51.393Z,55.66
2022-09-07T12:25:51.364Z,56.16
2022-09-07T12:26:51.373Z,56.76
2022-09-07T12:27:51.342Z,56.59
2022-09-07T12:28:51.334Z,57.06
2022-09-07T12:29:51.322Z,56.95
2022-09-07T12:30:51.349Z,56.49
2022-09-07T12:32:00.017Z,56.09
2022-09-07T12:32:54.528Z,56.26
2022-09-07T12:33:51.279Z,55.27
2022-09-07T12:34:51.328Z,56.36
2022-09-07T12:35:51.272Z,56.36
2022-09-07T12:36:51.250Z,55.96
2022-09-07T12:37:51.250Z,56.36
2022-09-07T12:38:51.226Z,56.09
2022-09-07T12:39:51.302Z,56.68
2022-09-07T12:40:51.224Z,56.91
2022-09-07T12:42:31.806Z,57.11
2022-09-07T12:42:52.179Z,57.01
2022-09-07T12:43:51.169Z,56.51
2022-09-07T12:44:51.245Z,56.94
2022-09-07T12:45:51.257Z,57.43
2022-09-07T12:46:51.187Z,57.64
2022-09-07T12:47:51.129Z,57.53
2022-09-07T12:48:51.118Z,57.53
2022-09-07T12:49:51.105Z,57.43
2022-09-07T12:50:51.174Z,57.73
2022-09-07T12:52:15.358Z,58.23
2022-09-07T12:52:52.069Z,57.73
2022-09-07T12:53:55.523Z,58.53
2022-09-07T12:55:09.933Z,57.81
2022-09-07T12:56:21.617Z,57.73
2022-09-07T12:57:52.016Z,57.53
2022-09-07T12:58:51.005Z,57.73
2022-09-07T12:59:50.993Z,58.03
2022-09-07T13:00:51.002Z,57.93
2022-09-07T13:01:51.105Z,59.03
2022-09-07T13:02:50.976Z,57.53
2022-09-07T13:03:51.797Z,57.73
2022-09-07T13:04:52.625Z,58.92
2022-09-07T13:05:50.934Z,58.23
2022-09-07T13:07:06.338Z,58.03
2022-09-07T13:07:51.903Z,58.03
2022-09-07T13:08:50.896Z,58.03
2022-09-07T13:09:51.019Z,57.64
2022-09-07T13:10:50.889Z,58.62
2022-09-07T13:11:50.861Z,58.73
2022-09-07T13:12:54.450Z,59.22
2022-09-07T13:14:09.501Z,58.75
2022-09-07T13:14:51.867Z,58.53
2022-09-07T13:15:51.040Z,58.73
2022-09-07T13:17:51.795Z,59.32
2022-09-07T13:18:50.789Z,58.73
2022-09-07T13:19:50.796Z,59.03
2022-09-07T13:20:50.774Z,57.83
2022-09-07T13:21:50.795Z,58.53
2022-09-07T13:22:50.741Z,58.62
2022-09-07T13:23:50.767Z,58.23
2022-09-07T13:24:50.892Z,58.73
2022-09-07T13:25:50.762Z,58.62
2022-09-07T13:26:51.390Z,58.62
2022-09-07T13:27:51.241Z,57.73
2022-09-07T13:28:50.673Z,58.06
2022-09-07T13:29:50.682Z,58.16
2022-09-07T13:30:50.704Z,59.25
2022-09-07T13:31:50.653Z,59.25
2022-09-07T13:33:51.616Z,59.82
2022-09-07T13:34:50.609Z,59.05
2022-09-07T13:35:50.606Z,59.35
2022-09-07T13:36:50.585Z,59.35
2022-09-07T13:37:50.576Z,59.05
2022-09-07T13:38:50.565Z,59.65
2022-09-07T13:39:50.620Z,59.62
2022-09-07T13:40:50.553Z,60.02
2022-09-07T13:41:50.554Z,60.05
2022-09-07T13:42:50.517Z,59.12